Aeroporto :
LOGIN :

Iscrizione | Disclaimer

   EN    FR    IT 

 










Sommario :    VFR   VFR Marginale   IFR   IFR Intensivo   IFR Molto Intensivo
Visibilità : 
Base nubi : 
>= 8 km
>= 3000ft
5 / 8 km
1000 / 3000 ft
1500m / 5 km
500 / 1000 ft
800 / 1500m
200 / 500 ft
< 800m
< 200 ft
Simboli :   Temporali  Nebbia  Neve Forte  Precipitazioni Forti  Vento > 20 kt
SIGMETs :   Varie  Temporali  Ghiacco  Turbolenza  Onda orograficha  Ceneri Vulcaniche






- Altitudine del aeroporto : 231 ft
- Codice IATA : N/A


EGSY - MOD Saint Athan

ULTIMO METAR :
  • 260550Z AUTO 25005KT 9999 SCT013/// 13/12 Q1009

METARs OBSOLETI :
  • 260520Z AUTO VRB01KT 9999 FEW022/// 13/12 Q1008
  • 260450Z AUTO VRB01KT 9999 SCT018/// OVC029/// 13/12 Q1008
  • 260420Z AUTO 14003KT 060V220 9999 OVC005/// 13/12 Q1008
  • 260350Z AUTO 12005KT 080V160 9999 OVC005/// 12/12 Q1008
  • 260320Z AUTO 11006KT 070V140 9999 OVC005/// 12/11 Q1009
  • 260250Z AUTO 11007KT 9999 OVC005/// 12/11 Q1009 RERA
  • 260220Z AUTO 11008KT 9999 OVC007/// 12/11 Q1009 RERA
  • 260150Z AUTO 10008KT 4100 RA OVC009/// 12/11 Q1009
  • 260120Z AUTO 10008KT 9999 RA BKN006/// OVC021/// 12/11 Q1010

TAF TAF EGSY
Valido dal 26 a 06 ore il 26 a 15 ore UTC


260457Z 2606/2615 14007KT 9999 SCT030
BECMG 2606/2609 24014KT
TEMPO 2606/2609 BKN008
TEMPO 2609/2615 26016G26KT 6000 SHRA
PROB30
TEMPO 2610/2615 3000 +SHRA +TSRA BKN012 BKN020CB



MetMap, La meteo Aeronautica in un colpo d'occhio ! - Copyright ORBIFLY Dicembre 2007 - Disclaimer

ORBIFLY MET'MAP TEAM :

Programmazione e sviluppo : Alexandra Zaïnal
Concezione : Baudouin d'Aumeries
Supporto tecnico e logistico : Manuel Goepfert
Aiuto : Marc-Olivier Méhu
Aiuto per la traduzione : Arnaldo La Scala




FONTI E CREDITI :

   NOAA